createdAt,value
2023-03-21T00:00:30.292Z,8.5
2023-03-21T00:06:43.411Z,8.4
2023-03-21T00:13:01.757Z,8.4
2023-03-21T00:19:10.994Z,8.4
2023-03-21T00:25:48.006Z,8.3
2023-03-21T00:32:22.180Z,8.3
2023-03-21T00:39:31.246Z,8.3
2023-03-21T00:45:56.903Z,8.2
2023-03-21T00:52:27.463Z,8.1
2023-03-21T00:58:19.424Z,7.9
2023-03-21T01:04:25.921Z,7.8
2023-03-21T01:10:21.548Z,7.7
2023-03-21T01:16:23.806Z,7.5
2023-03-21T01:22:41.545Z,7.3
2023-03-21T01:28:14.196Z,7.2
2023-03-21T01:34:08.258Z,7.1
2023-03-21T01:40:08.877Z,7.1
2023-03-21T01:45:58.508Z,7
2023-03-21T01:52:00.996Z,6.9
2023-03-21T01:58:07.582Z,6.9
2023-03-21T02:03:47.117Z,6.8
2023-03-21T02:09:34.500Z,6.7
2023-03-21T02:15:25.214Z,6.5
2023-03-21T02:21:06.340Z,6.4
2023-03-21T02:26:48.130Z,6.3
2023-03-21T02:33:11.749Z,6.1
2023-03-21T02:39:29.551Z,6
2023-03-21T02:45:57.556Z,5.9
2023-03-21T02:52:54.819Z,5.8
2023-03-21T02:59:23.680Z,5.7
2023-03-21T03:05:08.955Z,5.6
2023-03-21T03:10:47.881Z,5.6
2023-03-21T03:17:19.694Z,5.4
2023-03-21T03:23:08.118Z,5.4
2023-03-21T03:28:51.860Z,5.2
2023-03-21T03:35:07.601Z,5.1
2023-03-21T03:40:47.714Z,5.1
2023-03-21T03:47:26.353Z,5.1
2023-03-21T03:53:35.940Z,5
2023-03-21T03:59:41.635Z,5
2023-03-21T04:05:58.138Z,4.9
2023-03-21T04:12:03.622Z,4.8
2023-03-21T04:18:04.283Z,4.8
2023-03-21T04:23:46.144Z,4.7
2023-03-21T04:29:54.464Z,4.6
2023-03-21T04:36:13.289Z,4.4
2023-03-21T04:42:05.415Z,4.3
2023-03-21T04:47:58.384Z,4.3
2023-03-21T04:53:49.633Z,4.4
2023-03-21T04:59:41.817Z,4.4
2023-03-21T05:05:35.995Z,4.5
2023-03-21T05:11:31.139Z,4.7
2023-03-21T05:17:24.102Z,4.8
2023-03-21T05:23:15.780Z,4.9
2023-03-21T05:29:07.763Z,5.1
2023-03-21T05:35:01.446Z,5.3
2023-03-21T05:40:39.353Z,5.6
2023-03-21T05:46:33.093Z,6.1
2023-03-21T05:52:10.781Z,6.9
2023-03-21T05:58:02.250Z,7.9
2023-03-21T06:03:54.980Z,9.1
2023-03-21T06:09:47.863Z,10.5
2023-03-21T06:15:40.588Z,12.3
2023-03-21T06:21:33.060Z,14.6
2023-03-21T06:32:32.092Z,18.4
2023-03-21T06:38:24.504Z,19.3
2023-03-21T06:44:17.723Z,19.9
2023-03-21T06:50:11.424Z,20.4
2023-03-21T06:55:33.290Z,21
2023-03-21T07:01:09.708Z,21.5
2023-03-21T07:07:05.726Z,21.8
2023-03-21T07:12:42.957Z,22.1
2023-03-21T07:18:35.495Z,22.3
2023-03-21T07:24:28.803Z,23
2023-03-21T07:30:11.999Z,23.8
2023-03-21T07:35:49.730Z,24.5
2023-03-21T07:41:26.416Z,25
2023-03-21T07:47:23.244Z,25.5
2023-03-21T07:53:17.003Z,26.4
2023-03-21T07:59:09.734Z,27.9
2023-03-21T08:05:03.231Z,29.3
2023-03-21T08:10:59.780Z,30.7
2023-03-21T08:16:52.862Z,31.9
2023-03-21T08:22:44.846Z,34
2023-03-21T08:28:38.212Z,35.2
2023-03-21T08:34:16.068Z,35.3
2023-03-21T08:40:12.763Z,34.7
2023-03-21T08:45:51.244Z,33.9
2023-03-21T08:51:44.532Z,33.2
2023-03-21T08:57:38.354Z,32.8
2023-03-21T09:03:32.311Z,32.6
2023-03-21T09:09:26.436Z,32.7
2023-03-21T09:15:25.989Z,32.4
2023-03-21T09:21:19.101Z,32.1
2023-03-21T09:27:14.180Z,31.9
2023-03-21T09:32:50.810Z,32.3
2023-03-21T09:38:44.303Z,32.8
2023-03-21T09:44:37.239Z,34.1
2023-03-21T09:50:48.821Z,34.8
2023-03-21T09:56:41.700Z,34.7
2023-03-21T10:02:35.469Z,34.7
2023-03-21T10:08:29.502Z,35.3
2023-03-21T10:14:22.417Z,36.6
2023-03-21T10:20:18.406Z,40.1
2023-03-21T10:26:38.796Z,50.9
2023-03-21T10:32:48.361Z,47.9
2023-03-21T10:38:43.207Z,45.8
2023-03-21T10:44:21.164Z,45.6
2023-03-21T10:50:40.670Z,42.5
2023-03-21T10:56:35.759Z,40.1
2023-03-21T11:02:12.965Z,42.1
2023-03-21T11:07:50.872Z,48.3
2023-03-21T11:13:54.838Z,44.1
2023-03-21T11:19:49.505Z,42.4
2023-03-21T11:25:27.434Z,42.5
2023-03-21T11:31:21.275Z,42.8
2023-03-21T11:37:13.794Z,44.3
2023-03-21T11:43:06.792Z,46.2
2023-03-21T11:49:01.286Z,43
2023-03-21T11:54:43.769Z,42.4
2023-03-21T12:00:49.396Z,40.5
2023-03-21T12:06:55.851Z,41.3
2023-03-21T12:12:56.668Z,42.1
2023-03-21T12:18:50.417Z,41.4
2023-03-21T12:24:44.191Z,40.9
2023-03-21T12:30:50.929Z,40
2023-03-21T12:36:45.681Z,39.2
2023-03-21T12:42:40.807Z,39
2023-03-21T12:48:55.119Z,39
2023-03-21T12:54:32.958Z,39.4
2023-03-21T13:00:01.762Z,39.8
2023-03-21T13:05:58.514Z,39.4
2023-03-21T13:11:42.223Z,38.5
2023-03-21T13:17:43.749Z,37.4
2023-03-21T13:23:36.016Z,36.3
2023-03-21T13:29:29.562Z,35
2023-03-21T13:35:17.908Z,33.9
2023-03-21T13:41:10.622Z,33
2023-03-21T13:47:21.105Z,32.2
2023-03-21T13:53:23.601Z,31.4
2023-03-21T13:59:16.971Z,30.6
2023-03-21T14:05:21.416Z,29.8
2023-03-21T14:11:30.748Z,28.8
2023-03-21T14:24:00.969Z,27.1
2023-03-21T14:30:20.090Z,26.2
2023-03-21T14:35:58.470Z,25.1
2023-03-21T14:41:46.082Z,24.1
2023-03-21T14:47:48.004Z,23.3
2023-03-21T14:53:24.749Z,22.7
2023-03-21T14:59:02.976Z,21.9
2023-03-21T15:04:57.088Z,20.6
2023-03-21T15:10:34.963Z,19.6
2023-03-21T15:16:42.235Z,19.2
2023-03-21T15:22:36.056Z,18.9
2023-03-21T15:28:29.493Z,18.4
2023-03-21T15:34:08.182Z,18.1
2023-03-21T15:39:45.898Z,17.8
2023-03-21T15:45:25.497Z,17.6
2023-03-21T15:51:04.970Z,17.3
2023-03-21T16:01:51.989Z,16.7
2023-03-21T16:07:45.445Z,16.1
2023-03-21T16:13:38.339Z,15.6
2023-03-21T16:19:30.681Z,15.1
2023-03-21T16:25:23.771Z,14.5
2023-03-21T16:31:16.273Z,13.9
2023-03-21T16:37:09.627Z,13.4
2023-03-21T16:42:47.375Z,13
2023-03-21T16:48:25.587Z,12.7
2023-03-21T16:54:02.932Z,12.3
2023-03-21T16:59:42.096Z,12.1
2023-03-21T17:05:37.466Z,11.8
2023-03-21T17:11:13.980Z,11.6
2023-03-21T17:17:07.216Z,11.4
2023-03-21T17:22:47.984Z,11.3
2023-03-21T17:28:39.923Z,11.1
2023-03-21T17:34:33.184Z,10.9
2023-03-21T17:40:26.358Z,10.8
2023-03-21T17:46:18.403Z,10.6
2023-03-21T17:51:41.528Z,10.5
2023-03-21T17:57:06.636Z,10.4
2023-03-21T18:02:59.856Z,10.3
2023-03-21T18:09:39.186Z,10.2
2023-03-21T18:15:55.596Z,10.1
2023-03-21T18:21:45.214Z,9.9
2023-03-21T18:27:56.875Z,9.9
2023-03-21T18:36:07.302Z,9.8
2023-03-21T18:42:03.855Z,9.7
2023-03-21T18:49:48.416Z,9.6
2023-03-21T18:56:09.294Z,9.6
2023-03-21T19:03:19.090Z,9.4
2023-03-21T19:09:31.533Z,9.4
2023-03-21T19:15:54.083Z,9.3
2023-03-21T19:23:24.870Z,9.3
2023-03-21T19:30:10.528Z,9.2
2023-03-21T19:36:34.635Z,9.1
2023-03-21T19:42:32.253Z,9.1
2023-03-21T19:48:45.057Z,9.1
2023-03-21T19:56:04.864Z,9
2023-03-21T20:02:34.301Z,9
2023-03-21T20:08:28.746Z,8.9
2023-03-21T20:15:11.951Z,8.9
2023-03-21T20:21:25.485Z,8.9
2023-03-21T20:28:12.597Z,8.9
2023-03-21T20:36:00.660Z,8.8
2023-03-21T20:42:19.852Z,8.8
2023-03-21T20:49:35.866Z,8.8
2023-03-21T20:56:49.740Z,8.7
2023-03-21T21:03:30.653Z,8.7
2023-03-21T21:09:44.871Z,8.7
2023-03-21T21:16:14.306Z,8.6
2023-03-21T21:22:59.335Z,8.6
2023-03-21T21:28:54.838Z,8.7
2023-03-21T21:34:48.298Z,8.7
2023-03-21T21:40:41.029Z,8.7
2023-03-21T21:52:11.187Z,8.8
2023-03-21T21:57:50.105Z,8.7
2023-03-21T22:03:41.768Z,8.7
2023-03-21T22:09:22.153Z,8.6
2023-03-21T22:15:00.482Z,8.6
2023-03-21T22:20:41.004Z,8.4
2023-03-21T22:26:19.191Z,8.4
2023-03-21T22:32:13.028Z,8.3
2023-03-21T22:37:57.331Z,8.3
2023-03-21T22:43:50.895Z,8.1
2023-03-21T22:49:27.227Z,8.1
2023-03-21T22:55:19.790Z,7.9
2023-03-21T23:01:12.791Z,7.9
2023-03-21T23:06:51.917Z,7.8
2023-03-21T23:12:29.019Z,7.8
2023-03-21T23:18:06.977Z,7.7
2023-03-21T23:23:59.234Z,7.6
2023-03-21T23:29:38.927Z,7.6
2023-03-21T23:35:32.805Z,7.6
2023-03-21T23:41:25.127Z,7.5
2023-03-21T23:47:16.883Z,7.4
2023-03-21T23:53:11.358Z,7.4
2023-03-21T23:59:04.764Z,7.4
